Time;durP1;ratioP1;P1;durP2;ratioP2;P2;SDS_P1;SDS_P2;PMS_P1;PMS_P2;Temp;Humidity;BMP_temperature;BMP_pressure;BME280_temperature;BME280_humidity;BME280_pressure;Samples;Min_cycle;Max_cycle;Signal;HPM_P1;HPM_P2
2022/07/24 00:04:16;;;;;;;4.45;3.15;;;;;;;;;;10251728;28;20073;-63
2022/07/24 00:09:14;;;;;;;6.93;3.97;;;;;;;;;;10250380;28;20065;-63
2022/07/24 00:14:14;;;;;;;4.85;3.10;;;;;;;;;;10255225;28;20072;-62
2022/07/24 00:19:12;;;;;;;6.43;3.72;;;;;;;;;;10246622;28;20091;-62
2022/07/24 00:24:10;;;;;;;5.30;3.78;;;;;;;;;;10246570;28;20041;-64
2022/07/24 00:29:08;;;;;;;7.57;3.20;;;;;;;;;;10238526;28;20513;-63
2022/07/24 00:34:08;;;;;;;4.78;2.97;;;;;;;;;;10253321;28;20073;-62
2022/07/24 00:39:06;;;;;;;7.18;3.15;;;;;;;;;;10249475;28;20080;-63
2022/07/24 00:44:07;;;;;;;3.88;3.47;;;;;;;;;;10256747;28;20434;-62
2022/07/24 00:49:07;;;;;;;6.13;3.22;;;;;;;;;;10251599;28;20076;-63
2022/07/24 00:54:16;;;;;;;6.70;4.03;;;;;;;;;;10251922;28;20079;-66
2022/07/24 00:59:14;;;;;;;7.90;4.10;;;;;;;;;;10251629;28;20513;-62
2022/07/24 01:04:13;;;;;;;6.70;3.67;;;;;;;;;;10251198;28;20499;-62
2022/07/24 01:09:11;;;;;;;7.43;3.60;;;;;;;;;;10250719;28;20072;-63
2022/07/24 01:14:12;;;;;;;3.65;2.92;;;;;;;;;;10250777;28;20073;-63
2022/07/24 01:19:10;;;;;;;3.92;3.53;;;;;;;;;;10252800;28;20077;-63
2022/07/24 01:24:10;;;;;;;11.90;3.90;;;;;;;;;;10261335;28;20065;-63
2022/07/24 01:29:08;;;;;;;8.05;3.88;;;;;;;;;;10253083;28;20080;-63
2022/07/24 01:34:06;;;;;;;6.50;4.10;;;;;;;;;;10251795;28;20103;-65
2022/07/24 01:39:04;;;;;;;3.38;3.08;;;;;;;;;;10248481;28;20072;-65
2022/07/24 01:44:05;;;;;;;7.72;3.38;;;;;;;;;;10258732;28;20080;-67
2022/07/24 01:49:03;;;;;;;4.28;3.47;;;;;;;;;;10257026;28;20467;-64
2022/07/24 01:54:03;;;;;;;4.72;3.63;;;;;;;;;;10257729;28;20113;-64
2022/07/24 01:59:01;;;;;;;3.83;3.38;;;;;;;;;;10257214;28;20463;-64
2022/07/24 02:04:05;;;;;;;7.13;3.60;;;;;;;;;;10251766;28;20495;-64
2022/07/24 02:09:04;;;;;;;8.35;3.42;;;;;;;;;;10250971;28;20079;-64
2022/07/24 02:14:04;;;;;;;5.50;3.55;;;;;;;;;;10250298;28;20557;-64
2022/07/24 02:19:03;;;;;;;4.82;3.50;;;;;;;;;;10259911;28;21246;-65
2022/07/24 02:24:03;;;;;;;7.18;3.92;;;;;;;;;;10257104;28;20064;-65
2022/07/24 02:29:02;;;;;;;4.18;3.55;;;;;;;;;;10256905;28;20072;-64
2022/07/24 02:34:01;;;;;;;6.95;3.60;;;;;;;;;;10255926;28;20073;-64
2022/07/24 02:38:59;;;;;;;6.00;3.78;;;;;;;;;;10256510;28;20065;-65
2022/07/24 02:43:59;;;;;;;4.53;3.72;;;;;;;;;;10258152;28;20508;-64
2022/07/24 02:48:57;;;;;;;4.70;4.20;;;;;;;;;;10255675;28;20068;-64
2022/07/24 02:53:56;;;;;;;9.45;4.20;;;;;;;;;;10255934;28;20109;-64
2022/07/24 02:58:54;;;;;;;6.82;3.97;;;;;;;;;;10266740;28;20068;-65
2022/07/24 03:03:53;;;;;;;7.10;4.22;;;;;;;;;;10255061;28;20529;-65
2022/07/24 03:08:52;;;;;;;4.32;3.38;;;;;;;;;;10254814;28;20068;-64
2022/07/24 03:13:50;;;;;;;4.47;3.35;;;;;;;;;;10253935;28;20457;-64
2022/07/24 03:18:49;;;;;;;6.15;4.13;;;;;;;;;;10253422;28;20057;-64
2022/07/24 03:23:48;;;;;;;7.57;4.20;;;;;;;;;;10252881;28;20075;-64
2022/07/24 03:28:46;;;;;;;7.68;3.72;;;;;;;;;;10254592;28;20111;-64
2022/07/24 03:33:45;;;;;;;7.18;3.85;;;;;;;;;;10249287;28;20084;-64
2022/07/24 03:38:43;;;;;;;5.68;3.92;;;;;;;;;;10247625;28;20085;-64
2022/07/24 03:43:43;;;;;;;5.25;4.25;;;;;;;;;;10244780;28;20489;-64
2022/07/24 03:48:41;;;;;;;8.60;4.05;;;;;;;;;;10264322;28;20432;-64
2022/07/24 03:53:39;;;;;;;7.13;4.88;;;;;;;;;;10251133;28;20091;-64
2022/07/24 03:58:38;;;;;;;8.43;4.30;;;;;;;;;;10251296;28;20065;-64
2022/07/24 04:03:38;;;;;;;4.50;4.00;;;;;;;;;;10252576;28;20071;-64
2022/07/24 04:08:37;;;;;;;7.13;4.57;;;;;;;;;;10252498;28;20065;-65
2022/07/24 04:13:35;;;;;;;6.20;3.63;;;;;;;;;;10249041;28;20073;-65
2022/07/24 04:18:41;;;;;;;7.75;5.03;;;;;;;;;;10248068;28;20065;-64
2022/07/24 04:23:39;;;;;;;6.47;3.80;;;;;;;;;;10246320;28;20076;-65
2022/07/24 04:28:38;;;;;;;7.57;4.22;;;;;;;;;;10233588;28;20065;-65
2022/07/24 04:33:36;;;;;;;4.85;3.78;;;;;;;;;;10253441;28;20057;-64
2022/07/24 04:38:36;;;;;;;5.10;4.22;;;;;;;;;;10247127;28;20069;-65
2022/07/24 04:43:34;;;;;;;12.15;4.00;;;;;;;;;;10250975;28;20072;-65
2022/07/24 04:48:33;;;;;;;6.63;4.63;;;;;;;;;;10247426;28;20076;-65
2022/07/24 04:53:31;;;;;;;4.63;3.63;;;;;;;;;;10250924;28;20068;-65
2022/07/24 04:58:31;;;;;;;9.52;3.80;;;;;;;;;;10256357;28;20096;-65
2022/07/24 05:03:29;;;;;;;6.85;3.85;;;;;;;;;;10255108;28;20482;-65
2022/07/24 05:08:27;;;;;;;7.28;3.50;;;;;;;;;;10247946;28;20108;-65
2022/07/24 05:13:26;;;;;;;6.53;3.65;;;;;;;;;;10244220;28;20486;-65
2022/07/24 05:18:25;;;;;;;11.73;4.40;;;;;;;;;;10259562;28;20556;-63
2022/07/24 05:23:24;;;;;;;8.90;3.55;;;;;;;;;;10260227;28;20084;-66
2022/07/24 05:28:22;;;;;;;8.00;3.70;;;;;;;;;;10262493;28;20084;-64
2022/07/24 05:33:20;;;;;;;7.35;4.40;;;;;;;;;;10252073;28;20072;-64
2022/07/24 05:38:20;;;;;;;6.28;4.47;;;;;;;;;;10256635;28;20069;-64
2022/07/24 05:43:18;;;;;;;5.68;4.43;;;;;;;;;;10266578;28;20076;-65
2022/07/24 05:48:16;;;;;;;12.20;5.25;;;;;;;;;;10251994;28;20089;-65
2022/07/24 05:53:15;;;;;;;10.43;4.72;;;;;;;;;;10259692;28;20076;-64
2022/07/24 05:58:14;;;;;;;6.20;4.93;;;;;;;;;;10247236;28;20068;-63
2022/07/24 06:03:13;;;;;;;10.85;4.45;;;;;;;;;;10245540;28;20064;-65
2022/07/24 06:08:11;;;;;;;11.15;5.97;;;;;;;;;;10255209;28;20511;-58
2022/07/24 06:13:10;;;;;;;11.23;4.07;;;;;;;;;;10264683;28;20088;-57
2022/07/24 06:18:09;;;;;;;9.93;4.50;;;;;;;;;;11427275;22;20550;-59
2022/07/24 06:23:08;;;;;;;7.85;4.97;;;;;;;;;;10187099;28;20081;-59
2022/07/24 06:28:19;;;;;;;24.55;5.68;;;;;;;;;;10157469;28;20038;-59
2022/07/24 06:33:19;;;;;;;16.27;4.68;;;;;;;;;;10152503;28;20072;-59
2022/07/24 06:38:17;;;;;;;10.98;3.85;;;;;;;;;;10159296;28;20073;-59
2022/07/24 06:43:16;;;;;;;8.07;4.50;;;;;;;;;;10175696;28;20077;-59
2022/07/24 06:48:14;;;;;;;7.10;4.10;;;;;;;;;;10136371;28;20081;-59
2022/07/24 06:53:14;;;;;;;8.00;4.75;;;;;;;;;;10156871;28;20070;-59
2022/07/24 06:58:12;;;;;;;9.25;5.05;;;;;;;;;;10170134;28;20517;-60
2022/07/24 07:03:11;;;;;;;6.90;4.05;;;;;;;;;;10172830;28;20495;-59
2022/07/24 07:08:09;;;;;;;8.05;4.03;;;;;;;;;;10177464;28;20077;-61
2022/07/24 07:13:09;;;;;;;7.32;4.13;;;;;;;;;;10157952;28;20537;-61
2022/07/24 07:18:07;;;;;;;8.70;4.43;;;;;;;;;;10165730;28;20085;-61
2022/07/24 07:23:05;;;;;;;7.78;3.97;;;;;;;;;;10159817;28;20061;-61
2022/07/24 07:28:04;;;;;;;11.60;4.60;;;;;;;;;;10167423;28;20068;-61
2022/07/24 07:33:04;;;;;;;6.93;4.72;;;;;;;;;;10161938;28;20085;-61
2022/07/24 07:38:02;;;;;;;8.48;6.38;;;;;;;;;;10181281;28;20076;-61
2022/07/24 07:43:01;;;;;;;9.68;4.32;;;;;;;;;;10156603;28;20465;-62
2022/07/24 07:48:00;;;;;;;9.75;8.85;;;;;;;;;;10164171;28;20072;-61
2022/07/24 07:52:59;;;;;;;10.68;8.02;;;;;;;;;;10170396;28;20078;-61
2022/07/24 07:57:58;;;;;;;7.47;5.07;;;;;;;;;;10165168;28;20084;-61
2022/07/24 08:03:03;;;;;;;8.63;4.80;;;;;;;;;;10163841;28;20081;-61
2022/07/24 08:08:03;;;;;;;7.95;4.55;;;;;;;;;;10178277;28;20074;-61
2022/07/24 08:13:01;;;;;;;6.07;4.05;;;;;;;;;;10178344;28;20081;-61
2022/07/24 08:18:00;;;;;;;7.03;4.82;;;;;;;;;;10166169;28;20085;-62
2022/07/24 08:22:58;;;;;;;6.38;4.70;;;;;;;;;;10164101;28;20122;-61
2022/07/24 08:27:58;;;;;;;7.47;4.63;;;;;;;;;;10176809;28;20061;-62
2022/07/24 08:32:56;;;;;;;12.43;5.93;;;;;;;;;;10151186;28;20070;-61
2022/07/24 08:37:54;;;;;;;9.80;5.50;;;;;;;;;;10153341;28;20090;-61
2022/07/24 08:42:53;;;;;;;8.88;5.68;;;;;;;;;;10153158;28;20078;-61
2022/07/24 08:47:52;;;;;;;11.07;5.10;;;;;;;;;;10151666;28;20447;-60
2022/07/24 08:52:51;;;;;;;10.55;6.47;;;;;;;;;;10153005;28;20042;-62
2022/07/24 08:57:49;;;;;;;11.45;5.75;;;;;;;;;;10156105;28;20066;-61
2022/07/24 09:02:48;;;;;;;13.13;6.20;;;;;;;;;;10171571;28;20104;-60
2022/07/24 09:07:48;;;;;;;9.85;5.05;;;;;;;;;;10179765;28;20081;-61
2022/07/24 09:12:47;;;;;;;13.35;5.00;;;;;;;;;;10152934;28;20081;-62
2022/07/24 09:17:49;;;;;;;6.13;4.63;;;;;;;;;;10163070;28;20086;-62
2022/07/24 09:22:50;;;;;;;11.07;5.40;;;;;;;;;;10171576;28;20081;-60
2022/07/24 09:27:49;;;;;;;12.35;5.18;;;;;;;;;;10157566;28;20089;-61
2022/07/24 09:32:51;;;;;;;10.07;4.28;;;;;;;;;;10152345;28;20042;-61
2022/07/24 09:37:50;;;;;;;;;;;;;;;;;;10113721;28;20067;-62
2022/07/24 09:42:50;;;;;;;8.70;4.85;;;;;;;;;;10118119;28;19976;-61
2022/07/24 09:47:53;;;;;;;6.40;5.07;;;;;;;;;;10120153;28;20075;-61
2022/07/24 09:52:53;;;;;;;8.95;5.20;;;;;;;;;;10120214;28;20046;-60
2022/07/24 09:57:53;;;;;;;8.25;5.35;;;;;;;;;;10159531;28;20074;-62
2022/07/24 10:02:55;;;;;;;11.90;5.47;;;;;;;;;;10159160;28;20046;-62
2022/07/24 10:07:55;;;;;;;10.05;5.15;;;;;;;;;;10159142;28;20051;-62
2022/07/24 10:12:55;;;;;;;9.98;5.57;;;;;;;;;;10175182;28;20085;-62
2022/07/24 10:18:05;;;;;;;9.05;4.88;;;;;;;;;;10173299;28;20546;-60
2022/07/24 10:23:05;;;;;;;6.88;4.97;;;;;;;;;;10178000;28;20074;-60
2022/07/24 10:28:06;;;;;;;8.57;4.43;;;;;;;;;;10175854;28;20070;-61
2022/07/24 10:33:04;;;;;;;12.57;4.95;;;;;;;;;;10175450;28;20127;-60
2022/07/24 10:38:08;;;;;;;11.30;4.70;;;;;;;;;;10164864;28;20526;-61
2022/07/24 10:43:15;;;;;;;9.90;5.43;;;;;;;;;;10156952;28;20056;-61
2022/07/24 10:48:27;;;;;;;8.00;5.03;;;;;;;;;;10157077;28;20066;-61
2022/07/24 10:53:26;;;;;;;8.82;6.13;;;;;;;;;;10156760;28;20113;-62
2022/07/24 10:58:26;;;;;;;9.05;4.25;;;;;;;;;;10156676;28;20480;-60
2022/07/24 11:03:26;;;;;;;11.65;6.28;;;;;;;;;;10156265;28;20085;-61
2022/07/24 11:08:31;;;;;;;20.25;7.00;;;;;;;;;;10156013;28;20042;-61
2022/07/24 11:13:50;;;;;;;7.82;5.07;;;;;;;;;;10155334;28;20396;-61
2022/07/24 11:19:07;;;;;;;9.50;4.93;;;;;;;;;;10154705;28;20093;-61
2022/07/24 11:24:15;;;;;;;9.57;5.30;;;;;;;;;;10155206;28;20047;-61
2022/07/24 11:29:17;;;;;;;11.73;5.60;;;;;;;;;;10155864;28;20086;-61
2022/07/24 11:34:16;;;;;;;43.38;39.03;;;;;;;;;;10155685;28;20065;-60
2022/07/24 11:39:14;;;;;;;19.38;17.38;;;;;;;;;;10155635;28;20080;-61
2022/07/24 11:44:13;;;;;;;15.10;5.93;;;;;;;;;;10155243;28;20081;-62
2022/07/24 11:49:13;;;;;;;13.82;6.18;;;;;;;;;;10155603;28;20169;-61
2022/07/24 11:54:12;;;;;;;9.00;5.60;;;;;;;;;;10154773;28;20039;-62
2022/07/24 11:59:21;;;;;;;10.05;5.40;;;;;;;;;;10154627;28;20082;-62
2022/07/24 12:04:22;;;;;;;6.05;4.65;;;;;;;;;;10154019;28;20081;-62
2022/07/24 12:09:20;;;;;;;7.68;4.85;;;;;;;;;;10154962;28;20043;-61
2022/07/24 12:14:20;;;;;;;8.00;4.72;;;;;;;;;;10154167;28;20364;-61
2022/07/24 12:19:19;;;;;;;7.25;4.65;;;;;;;;;;10153963;28;20069;-62
2022/07/24 12:24:19;;;;;;;7.95;5.50;;;;;;;;;;10154064;28;20069;-61
2022/07/24 12:29:19;;;;;;;6.97;5.43;;;;;;;;;;10152536;28;20094;-61
2022/07/24 12:34:17;;;;;;;4.80;4.40;;;;;;;;;;10153639;28;20455;-62
2022/07/24 12:39:16;;;;;;;11.32;5.32;;;;;;;;;;10153832;28;20089;-61
2022/07/24 12:44:16;;;;;;;9.27;5.72;;;;;;;;;;10153610;28;20065;-62
2022/07/24 12:49:15;;;;;;;6.72;5.82;;;;;;;;;;10153462;28;20053;-62
2022/07/24 12:54:16;;;;;;;10.77;7.50;;;;;;;;;;10153169;28;20070;-61
2022/07/24 12:59:26;;;;;;;13.88;6.45;;;;;;;;;;10152753;28;20078;-61
2022/07/24 13:04:25;;;;;;;11.68;6.60;;;;;;;;;;10152660;28;20500;-61
2022/07/24 13:09:24;;;;;;;11.32;7.47;;;;;;;;;;10153821;28;20046;-62
2022/07/24 13:14:24;;;;;;;10.35;8.60;;;;;;;;;;10154251;28;20074;-61
2022/07/24 13:19:24;;;;;;;10.63;8.70;;;;;;;;;;10159530;28;20101;-62
2022/07/24 13:24:22;;;;;;;10.52;8.55;;;;;;;;;;10160476;28;20483;-62
2022/07/24 13:29:21;;;;;;;12.88;8.55;;;;;;;;;;10159316;28;20077;-61
2022/07/24 13:34:20;;;;;;;8.25;5.15;;;;;;;;;;10160235;28;20110;-60
2022/07/24 13:39:21;;;;;;;8.55;5.47;;;;;;;;;;10160764;28;20158;-62
2022/07/24 13:44:20;;;;;;;8.57;3.97;;;;;;;;;;10159723;28;20137;-62
2022/07/24 13:49:18;;;;;;;6.22;3.83;;;;;;;;;;10159853;28;20173;-62
2022/07/24 13:54:17;;;;;;;5.32;3.55;;;;;;;;;;10158444;28;20065;-61
2022/07/24 13:59:17;;;;;;;6.88;4.55;;;;;;;;;;10159194;28;20082;-61
2022/07/24 14:04:15;;;;;;;7.35;4.15;;;;;;;;;;10158680;28;20420;-62
2022/07/24 14:09:25;;;;;;;14.38;4.57;;;;;;;;;;10159030;28;20053;-61
2022/07/24 14:14:25;;;;;;;10.27;6.18;;;;;;;;;;10158280;28;20090;-61
2022/07/24 14:19:24;;;;;;;9.93;5.18;;;;;;;;;;10158160;28;20092;-61
2022/07/24 14:24:22;;;;;;;7.40;4.85;;;;;;;;;;10158255;28;20074;-61
2022/07/24 14:29:21;;;;;;;8.45;4.85;;;;;;;;;;10158066;28;20090;-61
2022/07/24 14:34:21;;;;;;;8.18;5.97;;;;;;;;;;10158317;28;20046;-61
2022/07/24 14:39:19;;;;;;;10.07;5.68;;;;;;;;;;10157633;28;20088;-61
2022/07/24 14:44:18;;;;;;;6.65;5.32;;;;;;;;;;10157384;28;20098;-61
2022/07/24 14:49:16;;;;;;;14.35;5.22;;;;;;;;;;10157303;28;20081;-61
2022/07/24 14:54:16;;;;;;;5.35;4.72;;;;;;;;;;10156847;28;20105;-60
2022/07/24 14:59:15;;;;;;;6.18;4.80;;;;;;;;;;10156968;28;20089;-60
2022/07/24 15:04:17;;;;;;;9.27;4.43;;;;;;;;;;10156602;28;20051;-60
2022/07/24 15:09:17;;;;;;;7.93;5.65;;;;;;;;;;10155329;28;20093;-60
2022/07/24 15:14:15;;;;;;;11.52;5.30;;;;;;;;;;10172167;28;20084;-60
2022/07/24 15:19:14;;;;;;;9.13;5.70;;;;;;;;;;10165536;28;20097;-60
2022/07/24 15:24:12;;;;;;;7.95;4.97;;;;;;;;;;10146017;28;20085;-61
2022/07/24 15:29:12;;;;;;;8.77;6.93;;;;;;;;;;10178377;28;20637;-61
2022/07/24 15:34:10;;;;;;;10.25;8.02;;;;;;;;;;10175849;28;20068;-62
2022/07/24 15:39:09;;;;;;;13.60;7.65;;;;;;;;;;10154067;28;20086;-61
2022/07/24 15:44:08;;;;;;;12.45;7.47;;;;;;;;;;10166133;28;20077;-61
2022/07/24 15:49:09;;;;;;;12.63;8.07;;;;;;;;;;10168347;28;20469;-61
2022/07/24 15:54:08;;;;;;;13.73;9.35;;;;;;;;;;10173507;28;20100;-61
2022/07/24 15:59:07;;;;;;;9.55;7.10;;;;;;;;;;10167693;28;20814;-61
2022/07/24 16:04:05;;;;;;;12.50;7.13;;;;;;;;;;10156572;28;20053;-61
2022/07/24 16:09:06;;;;;;;10.75;6.47;;;;;;;;;;10153655;28;20077;-61
2022/07/24 16:14:04;;;;;;;13.75;6.93;;;;;;;;;;10154901;28;20620;-61
2022/07/24 16:19:05;;;;;;;16.23;7.72;;;;;;;;;;10153590;28;20152;-61
2022/07/24 16:24:07;;;;;;;9.27;7.07;;;;;;;;;;10153897;28;20085;-61
2022/07/24 16:29:06;;;;;;;13.32;6.68;;;;;;;;;;10173465;28;20066;-60
2022/07/24 16:34:04;;;;;;;14.63;7.93;;;;;;;;;;10166658;28;20069;-59
2022/07/24 16:39:03;;;;;;;21.77;8.20;;;;;;;;;;10171081;28;20074;-59
2022/07/24 16:44:23;;;;;;;12.82;8.13;;;;;;;;;;10169846;28;20449;-59
2022/07/24 16:49:21;;;;;;;28.35;14.45;;;;;;;;;;10172949;28;20101;-59
2022/07/24 16:54:19;;;;;;;57.58;29.75;;;;;;;;;;10178750;28;20568;-60
2022/07/24 16:59:18;;;;;;;20.50;13.73;;;;;;;;;;10179044;28;20070;-60
2022/07/24 17:04:19;;;;;;;17.23;8.10;;;;;;;;;;10177453;28;20077;-59
2022/07/24 17:09:18;;;;;;;9.55;6.57;;;;;;;;;;10174935;28;20062;-60
2022/07/24 17:14:16;;;;;;;11.57;7.00;;;;;;;;;;10179950;28;20081;-60
2022/07/24 17:19:15;;;;;;;17.02;7.43;;;;;;;;;;10173313;28;20085;-58
2022/07/24 17:24:14;;;;;;;26.27;6.95;;;;;;;;;;10169714;28;20065;-58
2022/07/24 17:29:12;;;;;;;17.92;7.30;;;;;;;;;;10158865;28;20070;-58
2022/07/24 17:34:11;;;;;;;30.73;8.45;;;;;;;;;;10178681;28;20073;-58
2022/07/24 17:39:09;;;;;;;23.38;7.53;;;;;;;;;;10159817;28;20085;-58
2022/07/24 17:44:09;;;;;;;17.15;6.95;;;;;;;;;;10173693;28;20070;-58
2022/07/24 17:49:07;;;;;;;23.33;7.57;;;;;;;;;;10174143;28;20102;-57
2022/07/24 17:54:06;;;;;;;21.80;6.80;;;;;;;;;;10171808;28;20076;-56
2022/07/24 17:59:05;;;;;;;17.98;7.38;;;;;;;;;;10173032;28;20081;-57
2022/07/24 18:04:05;;;;;;;16.73;7.38;;;;;;;;;;10178625;28;20076;-55
2022/07/24 18:09:04;;;;;;;11.02;5.18;;;;;;;;;;10173218;28;20078;-57
2022/07/24 18:14:03;;;;;;;16.73;5.55;;;;;;;;;;10174552;28;20057;-58
2022/07/24 18:19:01;;;;;;;15.15;6.35;;;;;;;;;;10157296;28;20078;-59
2022/07/24 18:24:02;;;;;;;24.35;7.68;;;;;;;;;;10169748;28;20069;-59
2022/07/24 18:29:00;;;;;;;23.23;6.15;;;;;;;;;;10173751;28;20534;-57
2022/07/24 18:33:59;;;;;;;9.80;5.30;;;;;;;;;;10136075;28;20070;-59
2022/07/24 18:38:58;;;;;;;17.23;5.97;;;;;;;;;;10159978;28;20065;-58
2022/07/24 18:43:57;;;;;;;15.57;5.50;;;;;;;;;;10170295;28;20464;-58
2022/07/24 18:48:56;;;;;;;10.10;4.80;;;;;;;;;;10188574;28;20070;-58
2022/07/24 18:53:55;;;;;;;12.32;5.57;;;;;;;;;;10167373;28;20073;-56
2022/07/24 18:58:54;;;;;;;12.15;6.93;;;;;;;;;;10166835;28;20061;-58
2022/07/24 19:03:54;;;;;;;12.02;8.00;;;;;;;;;;10166253;28;20073;-59
2022/07/24 19:08:52;;;;;;;19.55;9.48;;;;;;;;;;10175045;28;20070;-59
2022/07/24 19:13:50;;;;;;;12.77;6.88;;;;;;;;;;10175608;28;20065;-59
2022/07/24 19:18:49;;;;;;;14.05;7.15;;;;;;;;;;10168896;28;20508;-59
2022/07/24 19:23:49;;;;;;;16.13;7.10;;;;;;;;;;10158318;28;20070;-59
2022/07/24 19:28:47;;;;;;;19.77;7.57;;;;;;;;;;10181551;28;20542;-60
2022/07/24 19:33:45;;;;;;;10.02;5.93;;;;;;;;;;10180257;28;20176;-58
2022/07/24 19:38:45;;;;;;;11.45;5.35;;;;;;;;;;10177127;28;20046;-57
2022/07/24 19:43:44;;;;;;;19.02;5.03;;;;;;;;;;10173468;28;20464;-58
2022/07/24 19:48:43;;;;;;;18.30;4.97;;;;;;;;;;10166881;28;20066;-58
2022/07/24 19:53:41;;;;;;;11.18;5.13;;;;;;;;;;10144340;28;20515;-58
2022/07/24 19:58:41;;;;;;;18.30;6.03;;;;;;;;;;10139895;28;20062;-59
2022/07/24 20:03:40;;;;;;;16.35;6.40;;;;;;;;;;10168319;28;20066;-58
2022/07/24 20:08:39;;;;;;;14.43;4.65;;;;;;;;;;10173257;28;20066;-59
2022/07/24 20:13:41;;;;;;;13.00;4.55;;;;;;;;;;10174669;28;20073;-59
2022/07/24 20:18:41;;;;;;;17.50;3.92;;;;;;;;;;10182279;28;20077;-59
2022/07/24 20:23:40;;;;;;;12.75;3.97;;;;;;;;;;10174547;28;20092;-58
2022/07/24 20:28:38;;;;;;;16.33;4.72;;;;;;;;;;10173509;28;20529;-58
2022/07/24 20:33:36;;;;;;;9.95;4.05;;;;;;;;;;10172760;28;20065;-58
2022/07/24 20:38:36;;;;;;;10.35;3.60;;;;;;;;;;10173223;28;20076;-58
2022/07/24 20:43:34;;;;;;;13.73;4.60;;;;;;;;;;10174074;28;20078;-59
2022/07/24 20:48:33;;;;;;;13.18;4.80;;;;;;;;;;10173899;28;20049;-58
2022/07/24 20:53:31;;;;;;;12.25;5.93;;;;;;;;;;10172813;28;20046;-57
2022/07/24 20:58:31;;;;;;;12.52;4.75;;;;;;;;;;10173438;28;20042;-59
2022/07/24 21:03:30;;;;;;;20.63;5.28;;;;;;;;;;10172031;28;20085;-58
2022/07/24 21:08:28;;;;;;;18.27;6.25;;;;;;;;;;10172861;28;20045;-58
2022/07/24 21:13:48;;;;;;;12.80;5.85;;;;;;;;;;10168484;28;20181;-58
2022/07/24 21:18:47;;;;;;;17.02;5.10;;;;;;;;;;10192601;28;20112;-58
2022/07/24 21:23:45;;;;;;;11.70;5.30;;;;;;;;;;10193238;28;20085;-58
2022/07/24 21:28:44;;;;;;;11.75;4.70;;;;;;;;;;10193221;28;20085;-59
2022/07/24 21:33:43;;;;;;;12.63;5.10;;;;;;;;;;10192945;28;20089;-59
2022/07/24 21:38:42;;;;;;;15.35;4.95;;;;;;;;;;10199634;28;20042;-59
2022/07/24 21:43:40;;;;;;;9.15;5.30;;;;;;;;;;10200862;28;20077;-57
2022/07/24 21:48:39;;;;;;;11.07;5.43;;;;;;;;;;10200354;28;20049;-58
2022/07/24 21:53:38;;;;;;;13.73;5.45;;;;;;;;;;10200625;28;20541;-58
2022/07/24 21:58:37;;;;;;;11.20;5.07;;;;;;;;;;10200006;28;20046;-58
2022/07/24 22:03:35;;;;;;;11.07;5.40;;;;;;;;;;10199456;28;20084;-58
2022/07/24 22:08:34;;;;;;;13.98;4.95;;;;;;;;;;10199704;28;20060;-59
2022/07/24 22:13:33;;;;;;;8.48;4.93;;;;;;;;;;10199855;28;20046;-60
2022/07/24 22:18:32;;;;;;;9.90;5.50;;;;;;;;;;10198535;28;20062;-59
2022/07/24 22:23:30;;;;;;;15.38;7.38;;;;;;;;;;10198880;28;20081;-59
2022/07/24 22:28:29;;;;;;;15.02;6.00;;;;;;;;;;10198152;28;20049;-58
2022/07/24 22:33:29;;;;;;;14.13;6.53;;;;;;;;;;10194550;28;20069;-59
2022/07/24 22:38:27;;;;;;;10.38;6.80;;;;;;;;;;10194690;28;20549;-58
2022/07/24 22:43:26;;;;;;;7.22;6.22;;;;;;;;;;10194744;28;20088;-58
2022/07/24 22:48:25;;;;;;;11.70;6.97;;;;;;;;;;10197277;28;20053;-58
2022/07/24 22:53:28;;;;;;;10.60;6.55;;;;;;;;;;10173996;28;20073;-58
2022/07/24 22:58:26;;;;;;;9.70;6.65;;;;;;;;;;10173249;28;20069;-58
2022/07/24 23:03:25;;;;;;;8.77;5.90;;;;;;;;;;10165826;28;20078;-59
2022/07/24 23:08:23;;;;;;;13.25;6.25;;;;;;;;;;10158296;28;20077;-59
2022/07/24 23:13:23;;;;;;;6.63;5.47;;;;;;;;;;10157845;28;20073;-59
2022/07/24 23:18:21;;;;;;;14.20;6.85;;;;;;;;;;10157317;28;20050;-59
2022/07/24 23:23:19;;;;;;;13.23;7.18;;;;;;;;;;10157000;28;20103;-59
2022/07/24 23:28:18;;;;;;;11.15;7.63;;;;;;;;;;10156732;28;20411;-59
2022/07/24 23:33:17;;;;;;;8.35;6.97;;;;;;;;;;10156549;28;20078;-58
2022/07/24 23:38:15;;;;;;;9.60;6.60;;;;;;;;;;10156173;28;20043;-58
2022/07/24 23:43:14;;;;;;;13.35;7.05;;;;;;;;;;10157054;28;20085;-59
2022/07/24 23:48:12;;;;;;;13.00;6.45;;;;;;;;;;10154022;28;20050;-58
2022/07/24 23:53:13;;;;;;;11.60;6.35;;;;;;;;;;10156485;28;20081;-58
2022/07/24 23:58:13;;;;;;;9.55;7.20;;;;;;;;;;10155560;28;20068;-58
